Latest Weather Observations for Scoresby

IDV60901

Issued at 10:11 pm EDT Saturday 25 February 2017 (issued every 10 minutes, with the page automatically refreshed every 10 minutes)

About weather observations | Map of Melbourne area stations | Latest observations for Melbourne area | Other Formats
Station Details ID: 086104 Name: SCORESBY RESEARCH INSTITUTE Lat: -37.87 Lon: 145.26 Height: 80.0 m
Data from the previous 72 hours. | See also: Recent months at Scoresby
Date/Time
EDT
Temp
°C
App
Temp
°C
Dew
Point
°C
Rel
Hum
%
Delta-T
°C
Wind Press
QNH
hPa
Press
MSL
hPa
Rain since
9am
mm
Dir  Spd
km/h
Gust
km/h
Spd
kts
Gust
kts
25/10:00pm 15.2 15.1 12.2 82 1.6 SSW 4 9 2 5 - - 0.0
25/09:30pm 15.8 16.0 12.9 83 1.6 S 4 9 2 5 - - 0.0
25/09:00pm 14.8 15.5 12.3 85 1.4 CALM 0 4 0 2 - - 0.0
25/08:30pm 16.1 16.9 12.5 79 2.0 CALM 0 0 0 0 - - 0.0
25/08:00pm 17.3 16.8 12.6 74 2.6 SW 7 13 4 7 - - 0.0
25/07:30pm 18.0 16.2 12.0 68 3.3 SSW 13 19 7 10 - - 0.0
25/07:00pm 18.4 16.4 11.5 64 3.8 S 13 22 7 12 - - 0.0
25/06:30pm 18.8 16.9 10.4 58 4.5 S 11 20 6 11 - - 0.0
25/06:00pm 19.8 17.4 10.0 53 5.3 S 13 20 7 11 - - 0.0
25/05:30pm 20.1 17.6 11.1 56 4.9 SW 15 28 8 15 - - 0.0
25/05:00pm 20.6 17.2 10.4 52 5.6 WSW 19 28 10 15 - - 0.0
25/04:30pm 19.9 16.3 10.0 53 5.3 SW 19 26 10 14 - - 0.0
25/04:00pm 20.5 17.8 10.3 52 5.5 SW 15 30 8 16 - - 0.0
25/03:30pm 21.8 19.2 9.3 45 6.7 SSW 13 26 7 14 - - 0.0
25/03:00pm 20.9 18.7 9.5 48 6.1 SSE 11 22 6 12 - - 0.0
25/02:30pm 20.7 18.4 9.0 47 6.2 S 11 17 6 9 - - 0.0
25/02:00pm 20.8 18.3 8.4 45 6.5 S 11 20 6 11 - - 0.0
25/01:30pm 19.5 16.9 7.6 46 6.1 SSE 11 24 6 13 - - 0.0
25/01:00pm 19.6 16.7 8.3 48 5.9 SSE 13 28 7 15 - - 0.0
25/12:30pm 18.9 16.2 7.4 47 5.9 SE 11 20 6 11 - - 0.0
25/12:00pm 19.0 16.3 7.4 47 5.9 SSE 11 20 6 11 - - 0.0
25/11:30am 18.1 15.4 7.2 49 5.5 SSE 11 19 6 10 - - 0.0
25/11:00am 17.2 14.7 8.1 55 4.6 S 11 22 6 12 - - 0.0
25/10:30am 16.6 13.8 7.0 53 4.8 SSE 11 20 6 11 - - 0.0
25/10:00am 15.6 12.5 7.1 57 4.2 SSE 13 22 7 12 - - 0.0
25/09:30am 15.4 12.8 7.7 60 3.9 SSE 11 20 6 11 - - 0.0
25/09:00am 14.5 12.8 8.2 66 3.2 SSE 7 15 4 8 - - 0.0
25/08:30am 13.1 12.0 8.4 73 2.3 SSE 4 9 2 5 - - 0.0
25/08:00am 11.3 10.6 8.5 83 1.4 S 2 6 1 3 - - 0.0
25/07:30am 9.5 9.0 7.8 89 0.8 CALM 0 0 0 0 - - 0.0
25/07:00am 10.0 9.5 7.9 87 1.0 CALM 0 2 0 1 - - 0.0
25/06:30am 9.9 9.4 8.0 88 0.9 CALM 0 4 0 2 - - 0.0
25/06:00am 10.6 9.9 8.4 86 1.1 S 2 4 1 2 - - 0.0
25/05:30am 10.8 10.4 8.2 84 1.3 CALM 0 0 0 0 - - 0.0
25/05:00am 11.9 11.1 8.2 78 1.8 SE 2 6 1 3 - - 0.0
25/04:30am 13.2 11.7 8.3 72 2.4 SSE 6 13 3 7 - - 0.0
25/04:00am 13.5 11.9 8.1 70 2.7 S 6 13 3 7 - - 0.0
25/03:30am 13.5 13.1 9.9 79 1.9 S 2 6 1 3 - - 0.0
25/03:00am 14.2 13.1 10.6 79 1.9 SE 7 11 4 6 - - 0.0
25/02:30am 13.9 13.3 10.3 79 1.9 SSW 4 7 2 4 - - 0.0
25/02:00am 13.2 12.8 9.8 80 1.8 S 2 6 1 3 - - 0.0
25/01:30am 12.8 12.6 9.1 78 1.9 CALM 0 2 0 1 - - 0.0
25/01:00am 13.7 12.8 9.2 74 2.3 SSE 4 9 2 5 - - 0.0
25/12:30am 14.4 13.4 9.0 70 2.8 SSE 4 11 2 6 - - 0.0
25/12:00am 15.4 14.1 9.3 67 3.2 SSE 6 11 3 6 - - 0.0
 
Date/Time
EDT
Temp
°C
App
Temp
°C
Dew
Point
°C
Rel
Hum
%
Delta-T
°C
Wind Press
QNH
hPa
Press
MSL
hPa
Rain since
9am
mm
Dir  Spd
km/h
Gust
km/h
Spd
kts
Gust
kts
24/11:30pm 15.5 14.5 10.3 71 2.7 S 6 11 3 6 - - 0.0
24/11:00pm 15.3 14.4 10.7 74 2.4 S 6 9 3 5 - - 0.0
24/10:30pm 15.2 14.7 10.8 75 2.3 SSW 4 7 2 4 - - 0.0
24/10:00pm 16.1 14.8 9.8 66 3.3 S 7 15 4 8 - - 0.0
24/09:30pm 16.3 14.8 9.3 63 3.6 S 7 13 4 7 - - 0.0
24/09:00pm 16.3 15.2 9.9 66 3.4 S 6 13 3 7 - - 0.0
24/08:30pm 16.4 15.1 9.3 63 3.7 S 6 13 3 7 - - 0.0
24/08:00pm 16.6 14.6 8.6 59 4.1 SSE 9 15 5 8 - - 0.0
24/07:30pm 16.8 15.1 8.5 58 4.3 SSE 7 15 4 8 - - 0.0
24/07:00pm 17.2 15.1 8.4 56 4.5 SSE 9 19 5 10 - - 0.0
24/06:30pm 17.4 15.0 8.5 56 4.6 S 11 20 6 11 - - 0.0
24/06:00pm 17.9 15.9 8.7 55 4.8 S 9 17 5 9 - - 0.0
24/05:30pm 17.7 15.8 9.1 57 4.5 SSE 9 17 5 9 - - 0.0
24/05:00pm 18.1 15.9 9.5 57 4.5 S 11 20 6 11 - - 0.0
24/04:30pm 17.6 15.4 9.5 59 4.3 S 11 17 6 9 - - 0.0
24/04:00pm 18.1 15.5 9.5 57 4.5 SSW 13 26 7 14 - - 0.0
24/03:30pm 18.1 15.4 8.9 55 4.8 SSW 13 22 7 12 - - 0.0
24/03:00pm 18.8 15.8 9.3 54 5.0 SW 15 24 8 13 - - 0.0
24/02:30pm 18.9 15.7 8.3 50 5.5 SSW 15 24 8 13 - - 0.0
24/02:00pm 18.6 15.5 8.8 53 5.1 SSW 15 26 8 14 - - 0.0
24/01:30pm 18.9 15.7 8.6 51 5.4 SSW 15 24 8 13 - - 0.0
24/01:00pm 18.3 15.6 8.8 54 5.0 SW 13 20 7 11 - - 0.0
24/12:30pm 18.5 15.7 8.7 53 5.1 SSW 13 19 7 10 - - 0.0
24/12:00pm 18.1 15.4 8.9 55 4.8 SSW 13 20 7 11 - - 0.0
24/11:30am 18.0 16.1 9.1 56 4.7 SW 9 17 5 9 - - 0.0
24/11:00am 17.5 14.9 9.2 58 4.3 SSW 13 22 7 12 - - 0.0
24/10:30am 17.6 15.9 10.0 61 4.0 S 9 15 5 8 - - 0.0
24/10:00am 16.9 14.8 9.8 63 3.7 S 11 17 6 9 - - 0.0
24/09:30am 16.7 15.4 9.9 64 3.6 S 7 13 4 7 - - 0.0
24/09:00am 16.1 14.5 10.2 68 3.1 SSW 9 17 5 9 - - 0.0
24/08:30am 15.8 15.0 11.2 74 2.5 S 6 13 3 7 - - 0.0
24/08:00am 15.4 15.1 12.7 84 1.5 SE 6 9 3 5 - - 0.0
24/07:30am 15.2 14.8 12.9 86 1.3 SSE 7 13 4 7 - - 0.0
24/07:00am 15.1 14.8 12.6 85 1.4 SSE 6 9 3 5 - - 0.0
24/06:30am 15.1 14.8 12.6 85 1.4 S 6 13 3 7 - - 0.0
24/06:00am 15.2 15.4 13.2 88 1.1 SSE 4 7 2 4 - - 0.0
24/05:30am 15.2 15.4 13.1 87 1.2 SSE 4 9 2 5 - - 0.0
24/05:00am 15.1 15.3 13.1 88 1.1 SSE 4 9 2 5 - - 0.0
24/04:30am 15.2 15.6 13.7 91 0.8 SE 4 9 2 5 - - 0.0
24/04:00am 15.2 15.3 13.9 92 0.7 S 6 13 3 7 - - 0.0
24/03:30am 15.4 15.5 13.9 91 0.8 S 6 13 3 7 - - 0.0
24/03:00am 15.8 15.9 14.0 89 1.0 SSE 6 9 3 5 - - 0.0
24/02:30am 15.9 16.0 13.9 88 1.1 SSE 6 13 3 7 - - 0.0
24/02:00am 15.9 16.1 14.1 89 1.0 SSE 6 11 3 6 - - 0.0
24/01:30am 16.3 16.3 14.1 87 1.3 SE 7 15 4 8 - - 0.0
24/01:00am 16.3 16.5 14.3 88 1.1 SSE 6 11 3 6 - - 0.0
24/12:30am 16.2 16.4 14.6 90 0.9 SE 7 13 4 7 - - 0.0
24/12:00am 16.5 16.6 14.5 88 1.1 SSE 7 19 4 10 - - 0.0
 
Date/Time
EDT
Temp
°C
App
Temp
°C
Dew
Point
°C
Rel
Hum
%
Delta-T
°C
Wind Press
QNH
hPa
Press
MSL
hPa
Rain since
9am
mm
Dir  Spd
km/h
Gust
km/h
Spd
kts
Gust
kts
23/11:30pm 17.1 17.2 13.8 81 1.9 SE 6 11 3 6 - - 0.0
23/11:00pm 17.3 16.7 13.6 79 2.1 S 9 15 5 8 - - 0.0
23/10:30pm 17.4 16.1 13.7 79 2.1 S 13 24 7 13 - - 0.0
23/10:00pm 17.3 16.8 13.8 80 2.0 SSE 9 19 5 10 - - 0.0
23/09:30pm 17.2 17.0 13.7 80 2.0 SSE 7 15 4 8 - - 0.0
23/09:00pm 17.8 17.2 13.5 76 2.4 SSE 9 17 5 9 - - 0.0
23/08:30pm 18.8 17.7 13.0 69 3.3 SSE 11 20 6 11 - - 0.0
23/08:00pm 20.2 19.2 13.4 65 3.9 SW 11 20 6 11 - - 0.0
23/07:30pm 21.8 20.0 12.1 54 5.5 SSW 13 22 7 12 - - 0.0
23/07:00pm 22.9 21.0 11.9 50 6.2 SW 13 20 7 11 - - 0.0
23/06:30pm 23.6 22.3 12.6 50 6.3 SSW 11 19 6 10 - - 0.0
23/06:00pm 24.3 22.6 12.6 48 6.7 SW 13 20 7 11 - - 0.0
23/05:30pm 25.0 23.7 12.6 46 7.2 SSW 11 20 6 11 - - 0.0
23/05:00pm 24.5 23.4 13.1 49 6.6 S 11 19 6 10 - - 0.0
23/04:30pm 24.0 22.3 12.6 49 6.6 SW 13 20 7 11 - - 0.0
23/04:00pm 24.0 22.5 13.2 50 6.3 SW 13 20 7 11 - - 0.0
23/03:30pm 24.1 22.5 12.7 49 6.6 SW 13 28 7 15 - - 0.0
23/03:00pm 23.7 22.2 12.0 48 6.7 SW 11 22 6 12 - - 0.0
23/02:30pm 23.8 22.5 13.6 52 6.0 SW 13 19 7 10 - - 0.0
23/02:00pm 23.0 22.0 12.3 51 6.1 SW 9 19 5 10 - - 0.0
23/01:30pm 22.4 21.1 12.6 54 5.6 WSW 11 17 6 9 - - 0.0
23/01:00pm 22.9 21.6 12.5 52 5.9 WSW 11 22 6 12 - - 0.0
23/12:30pm 22.2 21.4 13.0 56 5.3 SW 9 20 5 11 - - 0.0
23/12:00pm 21.3 20.3 12.4 57 5.0 WSW 9 17 5 9 - - 0.0
23/11:30am 21.6 20.0 12.7 57 5.1 WSW 13 24 7 13 - - 0.0
23/11:00am 20.5 19.1 12.2 59 4.7 W 11 19 6 10 - - 0.0
23/10:30am 20.1 18.2 11.8 59 4.6 WSW 13 20 7 11 - - 0.0
23/10:00am 19.1 17.3 12.1 64 3.9 WSW 13 20 7 11 - - 0.0
23/09:30am 19.6 18.0 12.8 65 3.8 WSW 13 19 7 10 - - 0.0
23/09:00am 19.3 18.5 12.8 66 3.7 WSW 9 15 5 8 - - 0.0
23/08:30am 17.3 18.4 13.6 79 2.1 CALM 0 0 0 0 - - 0.0
23/08:00am 14.2 15.2 13.1 93 0.6 CALM 0 0 0 0 - - 0.0
23/07:30am 12.4 12.8 11.1 92 0.7 CALM 0 0 0 0 - - 0.0
23/07:00am 12.4 12.8 11.1 92 0.7 CALM 0 0 0 0 - - 0.0
23/06:30am 12.6 13.0 11.2 91 0.7 CALM 0 0 0 0 - - 0.0
23/06:00am 12.7 13.1 11.3 91 0.7 CALM 0 0 0 0 - - 0.0
23/05:30am 13.0 13.5 11.6 91 0.7 CALM 0 0 0 0 - - 0.0
23/05:00am 13.5 14.0 11.7 89 1.0 CALM 0 0 0 0 - - 0.0
23/04:30am 13.9 14.5 11.9 88 1.1 CALM 0 0 0 0 - - 0.0
23/04:00am 14.6 15.3 12.3 86 1.3 CALM 0 0 0 0 - - 0.0
23/03:30am 15.3 15.6 12.1 81 1.7 NE 2 7 1 4 - - 0.0
23/03:00am 15.7 16.1 12.5 81 1.8 ENE 2 6 1 3 - - 0.0
23/02:30am 15.1 15.8 12.1 82 1.6 CALM 0 0 0 0 - - 0.0
23/02:00am 16.0 16.6 12.0 77 2.2 CALM 0 0 0 0 - - 0.0
23/01:30am 17.3 18.0 12.2 72 2.8 CALM 0 0 0 0 - - 0.0
23/01:00am 18.6 18.2 12.4 67 3.5 SW 6 9 3 5 - - 0.0
23/12:30am 18.9 18.5 12.4 66 3.6 SSE 6 11 3 6 - - 0.0
23/12:00am 19.3 17.3 12.8 66 3.7 SW 15 26 8 14 - - 0.0
 
Date/Time
EDT
Temp
°C
App
Temp
°C
Dew
Point
°C
Rel
Hum
%
Delta-T
°C
Wind Press
QNH
hPa
Press
MSL
hPa
Rain since
9am
mm
Dir  Spd
km/h
Gust
km/h
Spd
kts
Gust
kts
22/11:30pm 20.9 18.6 13.1 61 4.5 SW 17 30 9 16 - - 0.0
22/11:00pm 25.3 23.0 5.0 27 10.3 NNE 6 11 3 6 - - 0.0
22/10:30pm 25.8 23.1 5.4 27 10.5 NE 9 15 5 8 - - 0.0

Latest Capital City Observations: Canberra | Sydney | Melbourne | Brisbane | Adelaide | Perth | Hobart | Darwin

Other Formats:

Comma delimited format used in spreadsheet applications
http://www.bom.gov.au/fwo/IDV60901/IDV60901.95867.axf

JavaScript Object Notation format (JSON) in row-major order
http://www.bom.gov.au/fwo/IDV60901/IDV60901.95867.json